Rapid City Regional Airport
KRAP : now visible

Airfield :











YOU CAN JOIN US ON...

 
LOGIN :

Register | Disclaimer

   EN    FR    IT 

 









Legend :    VFR   Marginal VFR   IFR   Intensive IFR   Very Intensive IFR
Visi :
Ceiling :
>= 8 km
>= 3000ft
5 to 8 km
1000 to 3000 ft
1500m to 5 km
500 to 1000 ft
800 to 1500m
200 to 500 ft
< 800m
< 200 ft
Symbols :   Thunderstorms  Fog  Heavy snow  Heavy precipitations  Wind > 20 kt







- Airport Elevation : 3204 ft
- IATA code : RAP


KRAP - Rapid City Regional

CURRENT METAR :
  • 191252Z 34015KT 4SM -RA BR OVC006 01/00 A3002 RMK AO2 UPB44E46RAB46 SLP189 P0000 T00110000

EXPIRED METARs :
  • 191152Z 33015G22KT 6SM BR OVC005 01/00 A3000 RMK AO2 UPB02E38RAB09E24 SLP183 P0000 60003 70008 T00110000 10011 20006 53010
  • 191052Z AUTO 33016KT 7SM OVC006 01/00 A2999 RMK AO2 UPE46 CIG 004V009 SLP176 P0000 T00060000
  • 191042Z AUTO 33016G24KT 7SM UP BKN006 OVC012 01/00 A2998 RMK AO2 CIG 005V010 P0000 T00060000
  • 191031Z AUTO 33016KT 7SM UP SCT006 OVC014 01/00 A2998 RMK AO2 P0000 T00060000
  • 191023Z AUTO 33017KT 7SM UP SCT006 OVC015 01/M01 A2998 RMK AO2 P0000 T00061006

TAF KRAP
Valid from the 19 at 12:00 until the 20 at 12:00 UTC


191129Z 1912/2012 34015G25KT 6SM -SHRA OVC006
FM191500 36012KT P6SM OVC009
FM191800 03011KT P6SM OVC012
FM200000 10006KT P6SM OVC012
KZDV FIR / North America



MET'MAP, your aeronautical weather chart ! - Copyright ORBIFLY December 2007 - Disclaimer

ORBIFLY MET'MAP TEAM :

Programming & Development : Alexandra Zaïnal
Concept & Development : Baudouin d'Aumeries
Co-Development & Prog : Marc-Olivier Méhu
Technical & hardware support : Manuel Goepfert

Contact : metmap@orbifly.com




SOURCES & CREDITS :

   NOAA       Earth
Advisory